sensor_id;sensor_type;location;lat;lon;timestamp;temperature;humidity
3614;DHT22;1821;50.936;6.854;2023-08-24T00:00:37;19.00;1.00
3614;DHT22;1821;50.936;6.854;2023-08-24T00:01:19;19.00;1.00
3614;DHT22;1821;50.936;6.854;2023-08-24T00:02:02;19.00;1.00
3614;DHT22;1821;50.936;6.854;2023-08-24T00:02:44;19.00;1.00
3614;DHT22;1821;50.936;6.854;2023-08-24T00:03:26;19.00;1.00
3614;DHT22;1821;50.936;6.854;2023-08-24T00:04:08;19.00;1.00
3614;DHT22;1821;50.936;6.854;2023-08-24T00:04:53;19.00;1.00
3614;DHT22;1821;50.936;6.854;2023-08-24T00:05:35;19.00;1.00
3614;DHT22;1821;50.936;6.854;2023-08-24T00:06:18;19.00;1.00
3614;DHT22;1821;50.936;6.854;2023-08-24T00:07:00;19.00;1.00
3614;DHT22;1821;50.936;6.854;2023-08-24T00:07:42;19.00;1.00
3614;DHT22;1821;50.936;6.854;2023-08-24T00:08:24;19.00;1.00
3614;DHT22;1821;50.936;6.854;2023-08-24T00:09:06;18.90;1.00
3614;DHT22;1821;50.936;6.854;2023-08-24T00:09:48;18.90;1.00
3614;DHT22;1821;50.936;6.854;2023-08-24T00:10:30;18.90;1.00
3614;DHT22;1821;50.936;6.854;2023-08-24T00:11:13;18.90;1.00
3614;DHT22;1821;50.936;6.854;2023-08-24T00:11:56;18.90;1.00
3614;DHT22;1821;50.936;6.854;2023-08-24T00:12:41;18.90;1.00
3614;DHT22;1821;50.936;6.854;2023-08-24T00:13:23;18.90;1.00
3614;DHT22;1821;50.936;6.854;2023-08-24T00:14:04;19.10;1.00
3614;DHT22;1821;50.936;6.854;2023-08-24T00:14:47;18.90;1.00
3614;DHT22;1821;50.936;6.854;2023-08-24T00:15:29;18.90;1.00
3614;DHT22;1821;50.936;6.854;2023-08-24T00:16:12;18.90;1.00
3614;DHT22;1821;50.936;6.854;2023-08-24T00:16:54;18.90;1.00
3614;DHT22;1821;50.936;6.854;2023-08-24T00:17:38;18.90;1.00
3614;DHT22;1821;50.936;6.854;2023-08-24T00:18:20;18.90;1.00
3614;DHT22;1821;50.936;6.854;2023-08-24T00:19:05;18.90;1.00
3614;DHT22;1821;50.936;6.854;2023-08-24T00:19:48;18.90;1.00
3614;DHT22;1821;50.936;6.854;2023-08-24T00:20:31;18.90;1.00
3614;DHT22;1821;50.936;6.854;2023-08-24T00:21:15;18.90;1.00
3614;DHT22;1821;50.936;6.854;2023-08-24T00:22:04;18.90;1.00
3614;DHT22;1821;50.936;6.854;2023-08-24T00:22:46;18.80;1.00
3614;DHT22;1821;50.936;6.854;2023-08-24T00:23:31;18.80;1.00
3614;DHT22;1821;50.936;6.854;2023-08-24T00:24:13;18.80;1.00
3614;DHT22;1821;50.936;6.854;2023-08-24T00:24:55;18.80;1.00
3614;DHT22;1821;50.936;6.854;2023-08-24T00:25:37;18.70;1.00
3614;DHT22;1821;50.936;6.854;2023-08-24T00:26:19;18.70;1.00
3614;DHT22;1821;50.936;6.854;2023-08-24T00:27:01;18.70;1.00
3614;DHT22;1821;50.936;6.854;2023-08-24T00:27:43;18.70;1.00
3614;DHT22;1821;50.936;6.854;2023-08-24T00:28:27;18.70;1.00
3614;DHT22;1821;50.936;6.854;2023-08-24T00:29:09;18.70;1.00
3614;DHT22;1821;50.936;6.854;2023-08-24T00:29:51;18.70;1.00
3614;DHT22;1821;50.936;6.854;2023-08-24T00:30:33;18.60;1.00
3614;DHT22;1821;50.936;6.854;2023-08-24T00:31:18;18.70;1.00
3614;DHT22;1821;50.936;6.854;2023-08-24T00:32:00;18.70;1.00
3614;DHT22;1821;50.936;6.854;2023-08-24T00:32:42;18.70;1.00
3614;DHT22;1821;50.936;6.854;2023-08-24T00:33:24;18.60;1.00
3614;DHT22;1821;50.936;6.854;2023-08-24T00:34:06;18.60;1.00
3614;DHT22;1821;50.936;6.854;2023-08-24T00:34:48;18.60;1.00
3614;DHT22;1821;50.936;6.854;2023-08-24T00:35:30;18.70;1.00
3614;DHT22;1821;50.936;6.854;2023-08-24T00:36:12;18.70;1.00
3614;DHT22;1821;50.936;6.854;2023-08-24T00:36:54;18.70;1.00
3614;DHT22;1821;50.936;6.854;2023-08-24T00:37:37;18.70;1.00
3614;DHT22;1821;50.936;6.854;2023-08-24T00:38:19;18.70;1.00
3614;DHT22;1821;50.936;6.854;2023-08-24T00:39:01;18.80;1.00
3614;DHT22;1821;50.936;6.854;2023-08-24T00:39:42;18.70;1.00
3614;DHT22;1821;50.936;6.854;2023-08-24T00:40:24;18.70;1.00
3614;DHT22;1821;50.936;6.854;2023-08-24T00:41:07;18.60;1.00
3614;DHT22;1821;50.936;6.854;2023-08-24T00:41:48;18.60;1.00
3614;DHT22;1821;50.936;6.854;2023-08-24T00:42:31;18.70;1.00
3614;DHT22;1821;50.936;6.854;2023-08-24T00:43:13;18.70;1.00
3614;DHT22;1821;50.936;6.854;2023-08-24T00:43:55;18.60;1.00
3614;DHT22;1821;50.936;6.854;2023-08-24T00:44:37;18.60;1.00
3614;DHT22;1821;50.936;6.854;2023-08-24T00:45:19;18.60;1.00
3614;DHT22;1821;50.936;6.854;2023-08-24T00:46:03;18.50;1.00
3614;DHT22;1821;50.936;6.854;2023-08-24T00:46:45;18.50;1.00
3614;DHT22;1821;50.936;6.854;2023-08-24T00:47:27;18.40;1.00
3614;DHT22;1821;50.936;6.854;2023-08-24T00:48:10;18.40;1.00
3614;DHT22;1821;50.936;6.854;2023-08-24T00:48:54;18.40;1.00
3614;DHT22;1821;50.936;6.854;2023-08-24T00:49:41;18.50;1.00
3614;DHT22;1821;50.936;6.854;2023-08-24T00:50:23;18.50;1.00
3614;DHT22;1821;50.936;6.854;2023-08-24T00:51:05;18.50;1.00
3614;DHT22;1821;50.936;6.854;2023-08-24T00:51:47;18.40;1.00
3614;DHT22;1821;50.936;6.854;2023-08-24T00:52:31;18.40;1.00
3614;DHT22;1821;50.936;6.854;2023-08-24T00:53:13;18.50;1.00
3614;DHT22;1821;50.936;6.854;2023-08-24T00:53:58;21.50;1.00
3614;DHT22;1821;50.936;6.854;2023-08-24T00:54:41;18.50;1.00
3614;DHT22;1821;50.936;6.854;2023-08-24T00:55:23;18.50;1.00
3614;DHT22;1821;50.936;6.854;2023-08-24T00:56:05;18.50;1.00
3614;DHT22;1821;50.936;6.854;2023-08-24T00:56:47;18.50;1.00
3614;DHT22;1821;50.936;6.854;2023-08-24T00:57:29;18.50;1.00
3614;DHT22;1821;50.936;6.854;2023-08-24T00:58:11;18.40;1.00
3614;DHT22;1821;50.936;6.854;2023-08-24T00:58:54;18.40;98.10
3614;DHT22;1821;50.936;6.854;2023-08-24T00:59:37;18.40;35.40
3614;DHT22;1821;50.936;6.854;2023-08-24T01:00:19;18.40;20.90
3614;DHT22;1821;50.936;6.854;2023-08-24T01:01:01;18.40;1.00
3614;DHT22;1821;50.936;6.854;2023-08-24T01:01:47;18.40;1.00
3614;DHT22;1821;50.936;6.854;2023-08-24T01:02:29;18.40;99.90
3614;DHT22;1821;50.936;6.854;2023-08-24T01:03:11;18.40;99.90
3614;DHT22;1821;50.936;6.854;2023-08-24T01:03:53;18.40;90.10
3614;DHT22;1821;50.936;6.854;2023-08-24T01:04:35;18.30;3.10
3614;DHT22;1821;50.936;6.854;2023-08-24T01:05:18;18.30;34.40
3614;DHT22;1821;50.936;6.854;2023-08-24T01:06:00;18.30;1.00
3614;DHT22;1821;50.936;6.854;2023-08-24T01:06:44;18.30;1.00
3614;DHT22;1821;50.936;6.854;2023-08-24T01:07:26;18.30;1.00
3614;DHT22;1821;50.936;6.854;2023-08-24T01:08:08;23.00;4.50
3614;DHT22;1821;50.936;6.854;2023-08-24T01:08:50;18.40;99.90
3614;DHT22;1821;50.936;6.854;2023-08-24T01:09:32;18.50;99.90
3614;DHT22;1821;50.936;6.854;2023-08-24T01:10:17;18.60;99.90
3614;DHT22;1821;50.936;6.854;2023-08-24T01:11:35;18.50;99.90
3614;DHT22;1821;50.936;6.854;2023-08-24T01:13:37;18.60;99.90
3614;DHT22;1821;50.936;6.854;2023-08-24T01:15:19;18.60;99.90
3614;DHT22;1821;50.936;6.854;2023-08-24T01:16:11;18.60;99.90
3614;DHT22;1821;50.936;6.854;2023-08-24T01:16:58;18.60;99.90
3614;DHT22;1821;50.936;6.854;2023-08-24T01:17:43;18.60;99.90
3614;DHT22;1821;50.936;6.854;2023-08-24T01:18:26;18.60;99.90
3614;DHT22;1821;50.936;6.854;2023-08-24T01:19:37;18.60;99.90
3614;DHT22;1821;50.936;6.854;2023-08-24T01:20:18;18.60;99.90
3614;DHT22;1821;50.936;6.854;2023-08-24T01:21:00;18.60;99.90
3614;DHT22;1821;50.936;6.854;2023-08-24T01:21:42;18.60;99.90
3614;DHT22;1821;50.936;6.854;2023-08-24T01:23:23;18.60;99.90
3614;DHT22;1821;50.936;6.854;2023-08-24T01:24:30;18.50;10.90
3614;DHT22;1821;50.936;6.854;2023-08-24T01:25:20;18.50;99.90
3614;DHT22;1821;50.936;6.854;2023-08-24T01:26:16;18.40;99.90
3614;DHT22;1821;50.936;6.854;2023-08-24T01:27:00;18.40;99.90
3614;DHT22;1821;50.936;6.854;2023-08-24T01:27:43;18.50;99.90
3614;DHT22;1821;50.936;6.854;2023-08-24T01:28:26;18.50;99.90
3614;DHT22;1821;50.936;6.854;2023-08-24T01:29:11;18.50;99.90
3614;DHT22;1821;50.936;6.854;2023-08-24T01:29:53;18.50;99.90
3614;DHT22;1821;50.936;6.854;2023-08-24T01:30:38;18.40;99.90
3614;DHT22;1821;50.936;6.854;2023-08-24T01:31:24;18.40;99.90
3614;DHT22;1821;50.936;6.854;2023-08-24T01:32:11;18.40;99.90
3614;DHT22;1821;50.936;6.854;2023-08-24T01:32:53;18.40;99.90
3614;DHT22;1821;50.936;6.854;2023-08-24T01:33:35;18.40;99.90
3614;DHT22;1821;50.936;6.854;2023-08-24T01:34:18;22.80;99.90
3614;DHT22;1821;50.936;6.854;2023-08-24T01:35:01;18.40;99.90
3614;DHT22;1821;50.936;6.854;2023-08-24T01:35:44;18.40;99.90
3614;DHT22;1821;50.936;6.854;2023-08-24T01:36:28;18.40;99.90
3614;DHT22;1821;50.936;6.854;2023-08-24T01:37:10;18.40;99.90
3614;DHT22;1821;50.936;6.854;2023-08-24T01:37:52;18.40;99.90
3614;DHT22;1821;50.936;6.854;2023-08-24T01:38:34;18.40;99.90
3614;DHT22;1821;50.936;6.854;2023-08-24T01:39:31;18.40;99.90
3614;DHT22;1821;50.936;6.854;2023-08-24T01:40:17;18.40;99.90
3614;DHT22;1821;50.936;6.854;2023-08-24T01:41:12;18.40;99.90
3614;DHT22;1821;50.936;6.854;2023-08-24T01:42:02;18.40;81.50
3614;DHT22;1821;50.936;6.854;2023-08-24T01:42:59;18.40;99.90
3614;DHT22;1821;50.936;6.854;2023-08-24T01:43:44;18.30;99.90
3614;DHT22;1821;50.936;6.854;2023-08-24T01:44:29;18.40;99.90
3614;DHT22;1821;50.936;6.854;2023-08-24T01:45:14;18.40;99.90
3614;DHT22;1821;50.936;6.854;2023-08-24T01:45:58;18.40;99.90
3614;DHT22;1821;50.936;6.854;2023-08-24T01:46:42;18.40;99.90
3614;DHT22;1821;50.936;6.854;2023-08-24T01:47:25;18.40;99.90
3614;DHT22;1821;50.936;6.854;2023-08-24T01:48:09;18.40;99.90
3614;DHT22;1821;50.936;6.854;2023-08-24T01:48:53;18.40;99.90
3614;DHT22;1821;50.936;6.854;2023-08-24T01:49:36;18.40;99.90
3614;DHT22;1821;50.936;6.854;2023-08-24T01:50:19;18.40;99.90
3614;DHT22;1821;50.936;6.854;2023-08-24T01:51:02;18.40;99.90
3614;DHT22;1821;50.936;6.854;2023-08-24T01:51:44;18.40;99.90
3614;DHT22;1821;50.936;6.854;2023-08-24T01:52:27;18.40;99.90
3614;DHT22;1821;50.936;6.854;2023-08-24T01:53:09;18.40;99.90
3614;DHT22;1821;50.936;6.854;2023-08-24T01:53:51;18.40;99.90
3614;DHT22;1821;50.936;6.854;2023-08-24T01:54:34;18.50;99.90
3614;DHT22;1821;50.936;6.854;2023-08-24T01:55:20;18.40;99.90
3614;DHT22;1821;50.936;6.854;2023-08-24T01:56:10;18.30;99.90
3614;DHT22;1821;50.936;6.854;2023-08-24T01:56:53;18.40;99.90
3614;DHT22;1821;50.936;6.854;2023-08-24T01:57:35;18.50;99.90
3614;DHT22;1821;50.936;6.854;2023-08-24T01:58:17;18.50;99.90
3614;DHT22;1821;50.936;6.854;2023-08-24T01:58:59;18.50;1.00
3614;DHT22;1821;50.936;6.854;2023-08-24T01:59:43;18.50;1.00
3614;DHT22;1821;50.936;6.854;2023-08-24T02:00:25;18.50;1.00
3614;DHT22;1821;50.936;6.854;2023-08-24T02:01:08;18.40;1.00
3614;DHT22;1821;50.936;6.854;2023-08-24T02:01:50;18.50;1.00
3614;DHT22;1821;50.936;6.854;2023-08-24T02:02:34;18.40;1.00
3614;DHT22;1821;50.936;6.854;2023-08-24T02:03:17;18.40;1.00
3614;DHT22;1821;50.936;6.854;2023-08-24T02:03:59;18.30;1.00
3614;DHT22;1821;50.936;6.854;2023-08-24T02:04:41;18.30;1.00
3614;DHT22;1821;50.936;6.854;2023-08-24T02:05:23;18.30;1.00
3614;DHT22;1821;50.936;6.854;2023-08-24T02:06:09;18.30;1.00
3614;DHT22;1821;50.936;6.854;2023-08-24T02:06:51;18.30;1.00
3614;DHT22;1821;50.936;6.854;2023-08-24T02:07:33;18.30;1.00
3614;DHT22;1821;50.936;6.854;2023-08-24T02:08:15;18.40;1.00
3614;DHT22;1821;50.936;6.854;2023-08-24T02:08:59;18.30;1.00
3614;DHT22;1821;50.936;6.854;2023-08-24T02:09:41;18.40;1.00
3614;DHT22;1821;50.936;6.854;2023-08-24T02:10:23;18.40;1.00
3614;DHT22;1821;50.936;6.854;2023-08-24T02:11:05;18.50;1.00
3614;DHT22;1821;50.936;6.854;2023-08-24T02:11:47;18.50;1.00
3614;DHT22;1821;50.936;6.854;2023-08-24T02:12:29;18.50;1.00
3614;DHT22;1821;50.936;6.854;2023-08-24T02:13:11;18.50;1.00
3614;DHT22;1821;50.936;6.854;2023-08-24T02:13:53;18.60;1.00
3614;DHT22;1821;50.936;6.854;2023-08-24T02:14:35;18.50;1.00
3614;DHT22;1821;50.936;6.854;2023-08-24T02:15:17;18.50;1.00
3614;DHT22;1821;50.936;6.854;2023-08-24T02:16:07;18.50;1.00
3614;DHT22;1821;50.936;6.854;2023-08-24T02:16:50;18.50;1.00
3614;DHT22;1821;50.936;6.854;2023-08-24T02:17:32;18.50;1.00
3614;DHT22;1821;50.936;6.854;2023-08-24T02:18:15;18.40;1.00
3614;DHT22;1821;50.936;6.854;2023-08-24T02:18:57;18.50;1.00
3614;DHT22;1821;50.936;6.854;2023-08-24T02:19:40;18.50;1.00
3614;DHT22;1821;50.936;6.854;2023-08-24T02:20:24;18.50;1.00
3614;DHT22;1821;50.936;6.854;2023-08-24T02:21:08;18.50;1.00
3614;DHT22;1821;50.936;6.854;2023-08-24T02:21:50;18.30;1.00
3614;DHT22;1821;50.936;6.854;2023-08-24T02:22:32;18.40;1.00
3614;DHT22;1821;50.936;6.854;2023-08-24T02:23:14;18.40;1.00
3614;DHT22;1821;50.936;6.854;2023-08-24T02:23:56;18.50;1.00
3614;DHT22;1821;50.936;6.854;2023-08-24T02:24:38;18.40;1.00
3614;DHT22;1821;50.936;6.854;2023-08-24T02:25:22;18.40;1.00
3614;DHT22;1821;50.936;6.854;2023-08-24T02:26:06;18.40;1.00
3614;DHT22;1821;50.936;6.854;2023-08-24T02:26:48;18.40;1.00
3614;DHT22;1821;50.936;6.854;2023-08-24T02:27:31;18.30;1.00
3614;DHT22;1821;50.936;6.854;2023-08-24T02:28:13;18.40;1.00
3614;DHT22;1821;50.936;6.854;2023-08-24T02:28:58;18.20;1.00
3614;DHT22;1821;50.936;6.854;2023-08-24T02:30:25;18.30;1.00
3614;DHT22;1821;50.936;6.854;2023-08-24T02:31:07;18.40;1.00
3614;DHT22;1821;50.936;6.854;2023-08-24T02:31:50;18.50;1.00
3614;DHT22;1821;50.936;6.854;2023-08-24T02:32:32;18.50;99.90
3614;DHT22;1821;50.936;6.854;2023-08-24T02:33:14;18.50;99.90
3614;DHT22;1821;50.936;6.854;2023-08-24T02:33:56;18.50;1.00
3614;DHT22;1821;50.936;6.854;2023-08-24T02:34:38;18.60;99.90
3614;DHT22;1821;50.936;6.854;2023-08-24T02:35:20;18.60;99.90
3614;DHT22;1821;50.936;6.854;2023-08-24T02:36:05;18.60;99.90
3614;DHT22;1821;50.936;6.854;2023-08-24T02:36:47;18.60;99.90
3614;DHT22;1821;50.936;6.854;2023-08-24T02:37:29;18.60;99.90
3614;DHT22;1821;50.936;6.854;2023-08-24T02:38:13;18.70;99.90
3614;DHT22;1821;50.936;6.854;2023-08-24T02:38:55;18.70;1.00
3614;DHT22;1821;50.936;6.854;2023-08-24T02:39:37;18.60;99.90
3614;DHT22;1821;50.936;6.854;2023-08-24T02:40:18;18.50;99.90
3614;DHT22;1821;50.936;6.854;2023-08-24T02:41:04;18.60;99.90
3614;DHT22;1821;50.936;6.854;2023-08-24T02:41:46;18.60;1.00
3614;DHT22;1821;50.936;6.854;2023-08-24T02:42:30;18.50;99.90
3614;DHT22;1821;50.936;6.854;2023-08-24T02:43:13;18.60;99.90
3614;DHT22;1821;50.936;6.854;2023-08-24T02:43:55;18.60;99.90
3614;DHT22;1821;50.936;6.854;2023-08-24T02:44:37;18.60;1.00
3614;DHT22;1821;50.936;6.854;2023-08-24T02:45:19;18.30;99.90
3614;DHT22;1821;50.936;6.854;2023-08-24T02:46:04;18.70;99.90
3614;DHT22;1821;50.936;6.854;2023-08-24T02:46:48;18.70;99.90
3614;DHT22;1821;50.936;6.854;2023-08-24T02:47:30;20.00;99.90
3614;DHT22;1821;50.936;6.854;2023-08-24T02:48:12;18.70;99.90
3614;DHT22;1821;50.936;6.854;2023-08-24T02:48:54;18.70;99.90
3614;DHT22;1821;50.936;6.854;2023-08-24T02:49:36;18.70;99.90
3614;DHT22;1821;50.936;6.854;2023-08-24T02:50:18;18.70;99.90
3614;DHT22;1821;50.936;6.854;2023-08-24T02:51:02;18.70;99.90
3614;DHT22;1821;50.936;6.854;2023-08-24T02:51:44;18.70;99.90
3614;DHT22;1821;50.936;6.854;2023-08-24T02:52:29;18.80;99.90
3614;DHT22;1821;50.936;6.854;2023-08-24T02:53:13;18.70;99.90
3614;DHT22;1821;50.936;6.854;2023-08-24T02:53:55;18.80;1.00
3614;DHT22;1821;50.936;6.854;2023-08-24T02:54:37;18.80;99.90
3614;DHT22;1821;50.936;6.854;2023-08-24T02:55:19;18.80;99.90
3614;DHT22;1821;50.936;6.854;2023-08-24T02:56:01;18.80;1.00
3614;DHT22;1821;50.936;6.854;2023-08-24T02:56:43;18.80;1.00
3614;DHT22;1821;50.936;6.854;2023-08-24T02:57:25;18.70;99.90
3614;DHT22;1821;50.936;6.854;2023-08-24T02:58:07;18.80;99.90
3614;DHT22;1821;50.936;6.854;2023-08-24T02:58:49;18.80;99.90
3614;DHT22;1821;50.936;6.854;2023-08-24T02:59:31;18.70;99.90
3614;DHT22;1821;50.936;6.854;2023-08-24T03:00:13;18.70;99.90
3614;DHT22;1821;50.936;6.854;2023-08-24T03:00:55;18.70;99.90
3614;DHT22;1821;50.936;6.854;2023-08-24T03:01:38;18.60;99.90
3614;DHT22;1821;50.936;6.854;2023-08-24T03:02:23;18.70;99.90
3614;DHT22;1821;50.936;6.854;2023-08-24T03:03:05;18.70;99.90
3614;DHT22;1821;50.936;6.854;2023-08-24T03:03:50;18.80;99.90
3614;DHT22;1821;50.936;6.854;2023-08-24T03:04:32;18.80;99.90
3614;DHT22;1821;50.936;6.854;2023-08-24T03:05:15;18.80;99.90
3614;DHT22;1821;50.936;6.854;2023-08-24T03:06:01;18.80;99.90
3614;DHT22;1821;50.936;6.854;2023-08-24T03:06:44;18.80;1.00
3614;DHT22;1821;50.936;6.854;2023-08-24T03:07:26;18.90;99.90
3614;DHT22;1821;50.936;6.854;2023-08-24T03:08:09;18.90;99.90
3614;DHT22;1821;50.936;6.854;2023-08-24T03:08:53;18.80;99.90
3614;DHT22;1821;50.936;6.854;2023-08-24T03:09:35;18.80;99.90
3614;DHT22;1821;50.936;6.854;2023-08-24T03:10:17;18.80;99.90
3614;DHT22;1821;50.936;6.854;2023-08-24T03:10:59;18.80;99.90
3614;DHT22;1821;50.936;6.854;2023-08-24T03:11:42;18.80;1.00
3614;DHT22;1821;50.936;6.854;2023-08-24T03:12:24;18.90;99.90
3614;DHT22;1821;50.936;6.854;2023-08-24T03:13:08;18.90;99.90
3614;DHT22;1821;50.936;6.854;2023-08-24T03:13:50;18.90;99.90
3614;DHT22;1821;50.936;6.854;2023-08-24T03:14:32;18.90;1.00
3614;DHT22;1821;50.936;6.854;2023-08-24T03:15:14;19.00;99.90
3614;DHT22;1821;50.936;6.854;2023-08-24T03:15:56;18.90;1.00
3614;DHT22;1821;50.936;6.854;2023-08-24T03:16:38;18.90;1.00
3614;DHT22;1821;50.936;6.854;2023-08-24T03:17:23;18.90;1.00
3614;DHT22;1821;50.936;6.854;2023-08-24T03:18:05;18.80;99.90
3614;DHT22;1821;50.936;6.854;2023-08-24T03:18:47;18.80;99.90
3614;DHT22;1821;50.936;6.854;2023-08-24T03:19:29;18.80;99.90
3614;DHT22;1821;50.936;6.854;2023-08-24T03:20:11;18.70;99.90
3614;DHT22;1821;50.936;6.854;2023-08-24T03:20:53;18.90;99.90
3614;DHT22;1821;50.936;6.854;2023-08-24T03:21:35;18.80;99.90
3614;DHT22;1821;50.936;6.854;2023-08-24T03:22:17;18.80;99.90
3614;DHT22;1821;50.936;6.854;2023-08-24T03:22:59;18.70;99.90
3614;DHT22;1821;50.936;6.854;2023-08-24T03:23:43;18.70;99.90
3614;DHT22;1821;50.936;6.854;2023-08-24T03:24:25;18.70;99.90
3614;DHT22;1821;50.936;6.854;2023-08-24T03:25:07;18.70;99.90
3614;DHT22;1821;50.936;6.854;2023-08-24T03:25:49;18.80;99.90
3614;DHT22;1821;50.936;6.854;2023-08-24T03:26:31;18.80;99.90
3614;DHT22;1821;50.936;6.854;2023-08-24T03:27:13;18.80;99.90
3614;DHT22;1821;50.936;6.854;2023-08-24T03:27:55;18.90;99.90
3614;DHT22;1821;50.936;6.854;2023-08-24T03:28:37;18.90;99.90
3614;DHT22;1821;50.936;6.854;2023-08-24T03:29:20;16.30;99.90
3614;DHT22;1821;50.936;6.854;2023-08-24T03:30:02;18.90;99.90
3614;DHT22;1821;50.936;6.854;2023-08-24T03:30:50;18.90;99.90
3614;DHT22;1821;50.936;6.854;2023-08-24T03:31:33;18.90;99.90
3614;DHT22;1821;50.936;6.854;2023-08-24T03:32:15;18.80;99.90
3614;DHT22;1821;50.936;6.854;2023-08-24T03:32:57;18.80;99.90
3614;DHT22;1821;50.936;6.854;2023-08-24T03:33:43;18.70;99.90
3614;DHT22;1821;50.936;6.854;2023-08-24T03:34:25;18.70;99.90
3614;DHT22;1821;50.936;6.854;2023-08-24T03:35:08;18.70;99.90
3614;DHT22;1821;50.936;6.854;2023-08-24T03:35:53;18.80;99.90
3614;DHT22;1821;50.936;6.854;2023-08-24T03:36:35;18.80;99.90
3614;DHT22;1821;50.936;6.854;2023-08-24T03:37:17;18.80;99.90
3614;DHT22;1821;50.936;6.854;2023-08-24T03:37:59;18.90;99.90
3614;DHT22;1821;50.936;6.854;2023-08-24T03:38:41;18.80;99.90
3614;DHT22;1821;50.936;6.854;2023-08-24T03:39:23;18.90;99.90
3614;DHT22;1821;50.936;6.854;2023-08-24T03:40:05;18.90;99.90
3614;DHT22;1821;50.936;6.854;2023-08-24T03:40:48;18.90;99.90
3614;DHT22;1821;50.936;6.854;2023-08-24T03:41:30;18.90;99.90
3614;DHT22;1821;50.936;6.854;2023-08-24T03:42:12;18.80;99.90
3614;DHT22;1821;50.936;6.854;2023-08-24T03:42:54;18.80;99.90
3614;DHT22;1821;50.936;6.854;2023-08-24T03:43:36;18.80;99.90
3614;DHT22;1821;50.936;6.854;2023-08-24T03:44:21;18.80;99.90
3614;DHT22;1821;50.936;6.854;2023-08-24T03:45:03;18.80;99.90
3614;DHT22;1821;50.936;6.854;2023-08-24T03:45:45;18.80;99.90
3614;DHT22;1821;50.936;6.854;2023-08-24T03:46:30;18.80;99.90
3614;DHT22;1821;50.936;6.854;2023-08-24T03:47:12;18.80;99.90
3614;DHT22;1821;50.936;6.854;2023-08-24T03:47:54;18.70;99.90
3614;DHT22;1821;50.936;6.854;2023-08-24T03:48:36;18.70;99.90
3614;DHT22;1821;50.936;6.854;2023-08-24T03:49:18;18.80;99.90
3614;DHT22;1821;50.936;6.854;2023-08-24T03:50:00;18.80;99.90
3614;DHT22;1821;50.936;6.854;2023-08-24T03:50:42;18.80;99.90
3614;DHT22;1821;50.936;6.854;2023-08-24T03:51:24;18.80;99.90
3614;DHT22;1821;50.936;6.854;2023-08-24T03:52:08;18.80;99.90
3614;DHT22;1821;50.936;6.854;2023-08-24T03:52:53;18.80;99.90
3614;DHT22;1821;50.936;6.854;2023-08-24T03:53:36;18.80;1.00
3614;DHT22;1821;50.936;6.854;2023-08-24T03:54:18;18.80;99.90
3614;DHT22;1821;50.936;6.854;2023-08-24T03:55:00;18.80;99.90
3614;DHT22;1821;50.936;6.854;2023-08-24T03:55:47;18.80;99.90
3614;DHT22;1821;50.936;6.854;2023-08-24T03:56:30;18.80;99.90
3614;DHT22;1821;50.936;6.854;2023-08-24T03:57:12;18.80;99.90
3614;DHT22;1821;50.936;6.854;2023-08-24T03:57:54;18.80;99.90
3614;DHT22;1821;50.936;6.854;2023-08-24T03:58:38;18.80;99.90
3614;DHT22;1821;50.936;6.854;2023-08-24T03:59:20;18.90;99.90
3614;DHT22;1821;50.936;6.854;2023-08-24T04:00:02;18.90;99.90
3614;DHT22;1821;50.936;6.854;2023-08-24T04:00:49;18.90;99.90
3614;DHT22;1821;50.936;6.854;2023-08-24T04:01:34;18.90;99.90
3614;DHT22;1821;50.936;6.854;2023-08-24T04:02:16;18.90;99.90
3614;DHT22;1821;50.936;6.854;2023-08-24T04:02:58;18.90;99.90
3614;DHT22;1821;50.936;6.854;2023-08-24T04:03:40;18.90;99.90
3614;DHT22;1821;50.936;6.854;2023-08-24T04:04:25;18.80;99.90
3614;DHT22;1821;50.936;6.854;2023-08-24T04:05:07;18.90;99.90
3614;DHT22;1821;50.936;6.854;2023-08-24T04:05:49;18.90;99.90
3614;DHT22;1821;50.936;6.854;2023-08-24T04:06:31;18.80;99.90
3614;DHT22;1821;50.936;6.854;2023-08-24T04:07:13;18.80;99.90
3614;DHT22;1821;50.936;6.854;2023-08-24T04:07:55;18.80;99.90
3614;DHT22;1821;50.936;6.854;2023-08-24T04:08:37;18.80;99.90
3614;DHT22;1821;50.936;6.854;2023-08-24T04:09:19;18.90;1.00
3614;DHT22;1821;50.936;6.854;2023-08-24T04:10:03;18.90;1.00
3614;DHT22;1821;50.936;6.854;2023-08-24T04:10:46;18.90;1.00
3614;DHT22;1821;50.936;6.854;2023-08-24T04:11:28;19.00;1.00
3614;DHT22;1821;50.936;6.854;2023-08-24T04:12:11;19.00;99.90
3614;DHT22;1821;50.936;6.854;2023-08-24T04:12:53;19.00;1.00
3614;DHT22;1821;50.936;6.854;2023-08-24T04:13:35;18.90;1.00
3614;DHT22;1821;50.936;6.854;2023-08-24T04:14:17;18.90;99.90
3614;DHT22;1821;50.936;6.854;2023-08-24T04:14:59;19.00;99.90
3614;DHT22;1821;50.936;6.854;2023-08-24T04:15:43;18.90;99.90
3614;DHT22;1821;50.936;6.854;2023-08-24T04:16:25;18.90;1.00
3614;DHT22;1821;50.936;6.854;2023-08-24T04:17:07;18.90;99.90
3614;DHT22;1821;50.936;6.854;2023-08-24T04:17:49;18.90;1.00
3614;DHT22;1821;50.936;6.854;2023-08-24T04:18:31;18.80;99.90
3614;DHT22;1821;50.936;6.854;2023-08-24T04:19:13;18.80;99.90
3614;DHT22;1821;50.936;6.854;2023-08-24T04:19:56;18.90;99.90
3614;DHT22;1821;50.936;6.854;2023-08-24T04:20:40;18.90;99.90
3614;DHT22;1821;50.936;6.854;2023-08-24T04:21:22;18.90;1.00
3614;DHT22;1821;50.936;6.854;2023-08-24T04:22:47;18.90;1.00
3614;DHT22;1821;50.936;6.854;2023-08-24T04:23:29;18.90;1.00
3614;DHT22;1821;50.936;6.854;2023-08-24T04:24:11;18.90;1.00
3614;DHT22;1821;50.936;6.854;2023-08-24T04:24:53;18.80;1.00
3614;DHT22;1821;50.936;6.854;2023-08-24T04:25:35;18.90;99.90
3614;DHT22;1821;50.936;6.854;2023-08-24T04:26:17;18.90;99.90
3614;DHT22;1821;50.936;6.854;2023-08-24T04:26:59;18.80;99.90
3614;DHT22;1821;50.936;6.854;2023-08-24T04:27:43;18.80;99.90
3614;DHT22;1821;50.936;6.854;2023-08-24T04:28:25;18.80;99.90
3614;DHT22;1821;50.936;6.854;2023-08-24T04:29:07;18.80;99.90
3614;DHT22;1821;50.936;6.854;2023-08-24T04:29:49;18.80;99.90
3614;DHT22;1821;50.936;6.854;2023-08-24T04:30:31;18.80;99.90
3614;DHT22;1821;50.936;6.854;2023-08-24T04:31:13;18.80;99.90
3614;DHT22;1821;50.936;6.854;2023-08-24T04:31:55;18.80;99.90
3614;DHT22;1821;50.936;6.854;2023-08-24T04:32:37;18.80;99.90
3614;DHT22;1821;50.936;6.854;2023-08-24T04:33:19;18.80;99.90
3614;DHT22;1821;50.936;6.854;2023-08-24T04:34:01;18.80;99.90
3614;DHT22;1821;50.936;6.854;2023-08-24T04:34:43;18.80;99.90
3614;DHT22;1821;50.936;6.854;2023-08-24T04:35:25;18.80;99.90
3614;DHT22;1821;50.936;6.854;2023-08-24T04:36:08;18.80;99.90
3614;DHT22;1821;50.936;6.854;2023-08-24T04:36:50;18.80;99.90
3614;DHT22;1821;50.936;6.854;2023-08-24T04:37:32;18.80;99.90
3614;DHT22;1821;50.936;6.854;2023-08-24T04:38:14;18.80;99.90
3614;DHT22;1821;50.936;6.854;2023-08-24T04:38:56;18.80;99.90
3614;DHT22;1821;50.936;6.854;2023-08-24T04:39:38;18.80;99.90
3614;DHT22;1821;50.936;6.854;2023-08-24T04:40:20;18.80;99.90
3614;DHT22;1821;50.936;6.854;2023-08-24T04:41:03;18.80;99.90
3614;DHT22;1821;50.936;6.854;2023-08-24T04:41:49;18.80;99.90
3614;DHT22;1821;50.936;6.854;2023-08-24T04:42:33;18.80;99.90
3614;DHT22;1821;50.936;6.854;2023-08-24T04:43:19;18.80;99.90
3614;DHT22;1821;50.936;6.854;2023-08-24T04:44:01;18.80;99.90
3614;DHT22;1821;50.936;6.854;2023-08-24T04:44:43;18.80;99.90
3614;DHT22;1821;50.936;6.854;2023-08-24T04:45:25;18.70;99.90
3614;DHT22;1821;50.936;6.854;2023-08-24T04:46:07;18.60;99.90
3614;DHT22;1821;50.936;6.854;2023-08-24T04:46:49;18.60;99.90
3614;DHT22;1821;50.936;6.854;2023-08-24T04:47:33;18.50;99.90
3614;DHT22;1821;50.936;6.854;2023-08-24T04:48:15;18.50;99.90